Flight Track Log - Related Links

Times and Time Zones

All times are in EDT time to prevent confusion due to time zone crossing. See the SKW4821 flight status page for this flight to view local times or setup timezone preferences in your user account.

Time Position Orientation Groundspeed Altitude Reporting Facility
EDT Latitude Longitude Course Direction KTS MPH feet Rate Location/Type
Sun 02:24:44 PM 41.9000 -87.8667 154° Southeast 201 231 3,500  Level Chicago TRACON
Sun 02:29:06 PM 41.6172 -87.6861 156° South 270 311 14,000 2,124 Climbing Chicago Center
Sun 02:30:06 PM 41.5353 -87.6383 156° South 298 343 14,900 1,150 Climbing Chicago Center
Sun 02:31:06 PM 41.4467 -87.5853 156° South 330 380 16,300 1,450 Climbing Chicago Center
Sun 02:32:06 PM 41.3542 -87.5297 151° Southeast 346 398 17,800 1,600 Climbing Chicago Center
Sun 02:34:06 PM 41.1769 -87.3994 157° South 370 426 21,100 1,567 Climbing Chicago Center
Sun 02:35:06 PM 41.0822 -87.3472 155° Southeast 370 426 22,500 1,300 Climbing Chicago Center
Sun 02:36:06 PM 40.9872 -87.2897 154° Southeast 370 426 23,700 750 Climbing Chicago Center
Sun 02:37:06 PM 40.8903 -87.2267 148° Southeast 370 426 24,000 150 Climbing Chicago Center
Sun 02:38:06 PM 40.7950 -87.1475 156° South 392 451 24,000  Level Chicago Center
Sun 02:39:06 PM 40.7083 -87.0956 160° South 406 467 24,000 -450 Level Chicago Center
Sun 02:40:06 PM 40.5928 -87.0394 146° Southeast 406 467 23,100 -500 Descending Chicago Center
Sun 02:41:06 PM 40.4908 -86.9503 147° Southeast 399 459 23,000 -29 Descending Chicago Center
Sun 02:43:35 PM 40.2703 -86.7592 146° Southeast 387 445 23,000  Level Indianapolis Center
Sun 02:44:35 PM 40.1786 -86.6789 147° Southeast 387 445 23,000  Level Indianapolis Center
Sun 02:45:35 PM 40.0889 -86.6017 148° Southeast 392 451 23,000  Level Indianapolis Center
Sun 02:46:35 PM 39.9950 -86.5244 147° Southeast 387 445 23,000  Level Indianapolis Center
Sun 02:47:35 PM 39.9053 -86.4475 145° Southeast 387 445 23,000  Level Indianapolis Center
Sun 02:48:35 PM 39.8236 -86.3739 116° Southeast 387 445 23,000 -61 Level Indianapolis Center
Sun 02:49:14 PM 39.7833 -86.2667 110° East 399 459 22,900 -1,576 Descending Indianapolis TRACON
Sun 02:50:14 PM 39.7500 -86.1500 116° Southeast 387 445 20,400 -2,600 Descending Indianapolis TRACON
Sun 02:51:14 PM 39.7000 -86.0167 110° East 367 422 17,700 -2,550 Descending Indianapolis TRACON
Sun 02:52:14 PM 39.6667 -85.9000 113° Southeast 351 404 15,300 -1,900 Descending Indianapolis TRACON
Sun 02:53:14 PM 39.6333 -85.8000 119° Southeast 335 386 13,900 -1,200 Descending Indianapolis TRACON
Sun 02:54:14 PM 39.5833 -85.6833 110° East 328 377 12,900 -1,048 Descending Indianapolis TRACON
Sun 02:55:20 PM 39.5500 -85.5667 120° Southeast 329 379 11,700 -809 Descending Indianapolis TRACON
Sun 02:56:35 PM 39.4939 -85.4431 110° East 322 371 11,000 -578 Descending Indianapolis Center
Sun 02:57:35 PM 39.4661 -85.3456 102° East 301 346 10,400 -800 Descending Indianapolis Center
Sun 02:58:35 PM 39.4508 -85.2564 102° East 285 328 9,400 -994 Descending Indianapolis Center
Sun 03:00:30 PM 39.4167 -85.0500 113° Southeast 284 327 7,500 -994 Descending Cincinnati TRACON
Sun 03:01:36 PM 39.3833 -84.9500 123° Southeast 276 318 6,400 -1,000 Descending Cincinnati TRACON
Sun 03:02:36 PM 39.3500 -84.8833 117° Southeast 260 299 5,400 -694 Descending Cincinnati TRACON
Sun 03:03:37 PM 39.3167 -84.8000 123° Southeast 258 297 5,000 -298 Descending Cincinnati TRACON
Sun 03:04:37 PM 39.2833 -84.7333 131° Southeast 198 228 4,800 -500 Descending Cincinnati TRACON
Sun 03:05:37 PM 39.2500 -84.6833 153° Southeast 185 213 4,000 -450 Descending Cincinnati TRACON
Sun 03:06:37 PM 39.2000 -84.6500 180° South 197 227 3,900 -550 Descending Cincinnati TRACON
Sun 03:07:37 PM 39.1500 -84.6500 180° South 200 230 2,900 -1,050 Descending Cincinnati TRACON
Sun 03:08:37 PM 39.1000 -84.6500 192° South 163 188 1,800 -1,100 Descending Cincinnati TRACON
Sun 03:16:32 PM 38.6991 -84.7586 192° South  Level FlightAware Approximate

Login

Don't have an account? Register now (free) for customized features, flight alerts, and more!